Time;durP1;ratioP1;P1;durP2;ratioP2;P2;SDS_P1;SDS_P2;PMS_P1;PMS_P2;Temp;Humidity;BMP_temperature;BMP_pressure;BME280_temperature;BME280_humidity;BME280_pressure;Samples;Min_cycle;Max_cycle;Signal;HPM_P1;HPM_P2
2021/06/07 00:01:41;;;;;;;3.40;1.98;;;17.40;73.90;;;;;;5091699;28;20028;-62
2021/06/07 00:04:09;;;;;;;5.18;2.20;;;17.40;74.00;;;;;;5091464;28;20395;-62
2021/06/07 00:06:36;;;;;;;3.63;2.00;;;17.40;74.00;;;;;;5091028;28;20054;-62
2021/06/07 00:09:05;;;;;;;5.20;1.88;;;17.40;74.00;;;;;;5082860;28;20442;-62
2021/06/07 00:11:31;;;;;;;8.43;1.95;;;17.40;73.90;;;;;;5091922;28;20460;-62
2021/06/07 00:13:57;;;;;;;6.22;1.65;;;17.40;73.90;;;;;;5090654;28;20038;-62
2021/06/07 00:16:23;;;;;;;3.22;1.70;;;17.40;73.80;;;;;;5090875;28;20383;-62
2021/06/07 00:18:49;;;;;;;2.88;1.70;;;17.30;73.70;;;;;;5090174;28;20375;-62
2021/06/07 00:21:18;;;;;;;4.90;1.50;;;17.30;73.70;;;;;;5091522;28;20031;-62
2021/06/07 00:23:44;;;;;;;5.80;2.38;;;17.30;73.70;;;;;;5091372;28;20170;-62
2021/06/07 00:26:10;;;;;;;6.50;2.55;;;17.30;73.60;;;;;;5091341;28;20020;-62
2021/06/07 00:28:36;;;;;;;5.78;1.77;;;17.30;73.60;;;;;;5081495;28;20028;-62
2021/06/07 00:31:04;;;;;;;4.10;1.48;;;17.30;73.70;;;;;;5088200;28;20468;-62
2021/06/07 00:33:30;;;;;;;4.72;1.58;;;17.20;73.70;;;;;;5091843;28;20036;-62
2021/06/07 00:35:56;;;;;;;2.55;1.83;;;17.20;73.80;;;;;;5091365;28;20402;-62
2021/06/07 00:38:22;;;;;;;5.13;1.52;;;17.20;73.80;;;;;;5088498;28;20107;-62
2021/06/07 00:40:48;;;;;;;1.60;1.50;;;17.10;73.80;;;;;;5091561;28;20421;-62
2021/06/07 00:43:13;;;;;;;11.80;2.00;;;17.10;73.80;;;;;;5088707;28;20024;-62
2021/06/07 00:45:41;;;;;;;5.22;1.60;;;17.10;73.70;;;;;;5087069;28;20089;-62
2021/06/07 00:48:08;;;;;;;7.50;1.52;;;17.10;73.60;;;;;;5089873;28;20071;-62
2021/06/07 00:50:58;;;;;;;7.05;1.50;;;17.10;73.60;;;;;;5092156;28;20132;-62
2021/06/07 00:53:23;;;;;;;3.72;1.40;;;17.00;74.30;;;;;;5090289;28;20476;-62
2021/06/07 00:55:55;;;;;;;7.30;1.63;;;17.00;73.70;;;;;;5092597;28;20035;-62
2021/06/07 00:58:24;;;;;;;3.72;1.52;;;16.90;73.60;;;;;;5094250;28;20032;-62
2021/06/07 01:00:50;;;;;;;2.40;1.60;;;16.90;73.50;;;;;;5094883;28;20130;-62
2021/06/07 01:03:17;;;;;;;4.05;1.50;;;16.90;73.50;;;;;;5094873;28;20040;-62
2021/06/07 01:05:45;;;;;;;1.92;1.40;;;16.90;73.50;;;;;;5094287;28;20032;-62
2021/06/07 01:08:11;;;;;;;4.85;1.80;;;16.90;73.60;;;;;;5094951;28;20027;-62
2021/06/07 01:10:37;;;;;;;5.93;1.60;;;16.80;73.50;;;;;;5095209;28;20028;-62
2021/06/07 01:13:03;;;;;;;1.55;1.38;;;16.80;73.50;;;;;;5093729;28;20051;-62
2021/06/07 01:15:28;;;;;;;2.35;1.70;;;16.70;73.50;;;;;;5093283;28;20051;-62
2021/06/07 01:17:54;;;;;;;2.75;1.40;;;16.70;73.60;;;;;;5092809;28;20032;-62
2021/06/07 01:20:22;;;;;;;5.10;2.00;;;16.70;73.80;;;;;;5092434;28;20032;-62
2021/06/07 01:22:50;;;;;;;1.85;1.50;;;16.70;73.90;;;;;;5094478;28;20020;-62
2021/06/07 01:25:28;;;;;;;1.80;1.40;;;16.70;73.90;;;;;;5094787;28;20157;-62
2021/06/07 01:27:55;;;;;;;1.95;1.70;;;16.70;74.00;;;;;;5092568;28;20114;-62
2021/06/07 01:30:27;;;;;;;5.20;2.00;;;16.70;74.10;;;;;;5094440;28;20065;-62
2021/06/07 01:32:53;;;;;;;8.20;2.13;;;16.60;74.20;;;;;;5094083;28;20422;-62
2021/06/07 01:35:20;;;;;;;3.63;2.00;;;16.60;74.30;;;;;;5091991;28;20051;-62
2021/06/07 01:37:48;;;;;;;3.78;1.60;;;16.60;74.40;;;;;;5094379;28;20102;-62
2021/06/07 01:40:26;;;;;;;4.72;1.80;;;16.60;74.60;;;;;;5083286;28;20085;-62
2021/06/07 01:42:52;;;;;;;3.53;1.85;;;16.60;74.70;;;;;;5094114;28;20120;-62
2021/06/07 01:45:20;;;;;;;3.40;2.00;;;16.60;74.70;;;;;;5082648;28;20024;-62
2021/06/07 01:47:46;;;;;;;2.60;1.80;;;16.60;74.80;;;;;;5093506;28;20266;-62
2021/06/07 01:50:14;;;;;;;5.47;2.00;;;16.60;74.90;;;;;;5093284;28;20456;-62
2021/06/07 01:52:44;;;;;;;6.10;1.88;;;16.60;74.90;;;;;;5093944;28;20460;-62
2021/06/07 01:55:20;;;;;;;4.95;1.98;;;16.60;75.00;;;;;;5092773;28;20047;-62
2021/06/07 01:57:48;;;;;;;6.65;2.03;;;16.50;75.00;;;;;;5094434;28;20028;-62
2021/06/07 02:00:24;;;;;;;5.88;2.20;;;16.50;75.00;;;;;;5092476;28;20387;-62
2021/06/07 02:02:53;;;;;;;7.65;2.72;;;16.50;75.20;;;;;;5093314;28;20471;-62
2021/06/07 02:05:25;;;;;;;3.03;2.00;;;16.60;75.40;;;;;;5092845;28;20028;-62
2021/06/07 02:07:52;;;;;;;4.35;2.20;;;16.50;75.30;;;;;;5091833;28;20436;-62
2021/06/07 02:10:21;;;;;;;2.13;1.90;;;16.50;75.30;;;;;;5092566;28;20035;-62
2021/06/07 02:12:47;;;;;;;5.93;2.35;;;16.50;75.30;;;;;;5094143;28;20047;-62
2021/06/07 02:15:14;;;;;;;5.10;2.20;;;16.50;75.30;;;;;;5093780;28;20103;-62
2021/06/07 02:17:40;;;;;;;3.70;2.63;;;16.50;75.50;;;;;;5092591;28;20028;-62
2021/06/07 02:20:10;;;;;;;3.10;1.95;;;16.40;75.50;;;;;;5093581;28;20028;-61
2021/06/07 02:22:37;;;;;;;9.32;2.28;;;16.40;75.70;;;;;;5093321;28;20388;-62
2021/06/07 02:25:09;;;;;;;6.15;2.22;;;16.40;75.80;;;;;;5093214;28;20032;-62
2021/06/07 02:27:35;;;;;;;6.00;2.35;;;16.50;76.10;;;;;;5091725;28;20477;-62
2021/06/07 02:30:04;;;;;;;4.68;2.50;;;16.40;76.10;;;;;;5092970;28;20138;-62
2021/06/07 02:32:30;;;;;;;5.63;3.33;;;16.40;76.20;;;;;;5084622;28;20083;-63
2021/06/07 02:34:56;;;;;;;3.45;2.10;;;16.40;76.40;;;;;;5093584;28;20048;-63
2021/06/07 02:37:21;;;;;;;7.95;2.42;;;16.40;76.40;;;;;;5082228;28;20036;-62
2021/06/07 02:39:52;;;;;;;4.72;2.28;;;16.40;77.10;;;;;;5073526;28;20024;-63
2021/06/07 02:42:18;;;;;;;4.15;2.00;;;16.40;76.50;;;;;;5086135;28;20025;-63
2021/06/07 02:44:48;;;;;;;4.57;2.40;;;16.40;76.60;;;;;;5071127;28;20502;-62
2021/06/07 02:47:14;;;;;;;4.72;2.35;;;16.40;76.50;;;;;;5059873;28;20104;-62
2021/06/07 02:49:40;;;;;;;3.97;2.28;;;16.40;76.60;;;;;;5084721;28;20032;-62
2021/06/07 02:52:06;;;;;;;4.63;2.38;;;16.40;76.60;;;;;;5070890;28;20036;-63
2021/06/07 02:54:31;;;;;;;3.65;2.20;;;16.30;76.60;;;;;;5073113;28;20037;-63
2021/06/07 02:56:57;;;;;;;2.58;2.22;;;16.30;76.60;;;;;;5072289;28;20028;-63
2021/06/07 02:59:23;;;;;;;4.13;2.25;;;16.30;76.70;;;;;;5072505;28;20028;-62
2021/06/07 03:01:49;;;;;;;3.47;2.30;;;16.30;76.70;;;;;;5071978;28;20032;-62
2021/06/07 03:04:14;;;;;;;4.28;2.30;;;16.30;76.70;;;;;;5072613;28;20032;-63
2021/06/07 03:06:40;;;;;;;5.22;2.33;;;16.30;76.80;;;;;;5076835;28;20070;-63
2021/06/07 03:09:06;;;;;;;4.90;2.40;;;16.20;76.80;;;;;;5071785;28;20035;-63
2021/06/07 03:11:31;;;;;;;7.35;2.55;;;16.20;76.90;;;;;;5072934;28;20092;-62
2021/06/07 03:13:57;;;;;;;8.30;2.58;;;16.20;76.90;;;;;;5071136;28;20387;-62
2021/06/07 03:16:23;;;;;;;8.93;2.67;;;16.20;77.60;;;;;;5072100;28;20020;-63
2021/06/07 03:18:49;;;;;;;8.10;2.70;;;16.10;77.00;;;;;;5071874;28;20111;-62
2021/06/07 03:21:15;;;;;;;7.55;3.25;;;16.10;77.10;;;;;;5072038;28;20508;-63
2021/06/07 03:23:41;;;;;;;5.28;3.25;;;16.10;77.10;;;;;;5065585;28;20380;-62
2021/06/07 03:26:08;;;;;;;4.15;3.00;;;16.10;77.00;;;;;;5071118;28;20105;-62
2021/06/07 03:28:34;;;;;;;10.05;2.92;;;16.10;76.90;;;;;;5072502;28;20087;-63
2021/06/07 03:31:01;;;;;;;4.03;3.00;;;16.10;76.80;;;;;;5071376;28;20463;-62
2021/06/07 03:33:27;;;;;;;3.42;2.83;;;16.00;76.60;;;;;;5071528;28;20119;-63
2021/06/07 03:35:55;;;;;;;4.88;3.00;;;16.00;76.60;;;;;;5055361;28;20044;-62
2021/06/07 03:38:22;;;;;;;6.63;2.72;;;16.00;76.60;;;;;;5072444;28;20032;-63
2021/06/07 03:40:52;;;;;;;4.88;3.13;;;16.00;76.60;;;;;;5071233;28;20056;-63
2021/06/07 03:43:19;;;;;;;5.38;2.72;;;16.00;76.50;;;;;;5070641;28;20028;-62
2021/06/07 03:45:44;;;;;;;4.78;3.20;;;16.00;76.40;;;;;;5071845;28;20491;-63
2021/06/07 03:48:10;;;;;;;4.53;2.88;;;15.90;76.20;;;;;;5070964;28;20115;-63
2021/06/07 03:50:37;;;;;;;3.67;2.50;;;15.90;76.30;;;;;;5072691;28;20640;-63
2021/06/07 03:53:05;;;;;;;4.57;2.75;;;15.90;76.20;;;;;;5072220;28;20417;-63
2021/06/07 03:55:32;;;;;;;5.20;2.58;;;15.90;76.20;;;;;;5071647;28;20058;-62
2021/06/07 03:57:58;;;;;;;5.45;2.97;;;15.90;76.20;;;;;;5072296;28;20104;-63
2021/06/07 04:00:30;;;;;;;6.15;2.70;;;15.90;76.30;;;;;;5071213;28;20024;-62
2021/06/07 04:02:56;;;;;;;4.22;2.67;;;15.80;76.20;;;;;;5071712;28;20094;-62
2021/06/07 04:05:22;;;;;;;7.03;3.08;;;15.80;76.10;;;;;;5070162;28;20021;-62
2021/06/07 04:07:48;;;;;;;8.27;3.00;;;15.80;76.20;;;;;;5072154;28;20438;-62
2021/06/07 04:10:17;;;;;;;6.60;3.00;;;15.80;76.30;;;;;;5066518;28;20028;-62
2021/06/07 04:12:44;;;;;;;6.88;2.85;;;15.80;76.40;;;;;;5071406;28;20033;-63
2021/06/07 04:15:11;;;;;;;4.95;2.85;;;15.80;76.60;;;;;;5062801;28;20171;-62
2021/06/07 04:17:37;;;;;;;4.50;2.70;;;15.70;76.60;;;;;;5071183;28;20061;-62
2021/06/07 04:20:08;;;;;;;3.65;2.72;;;15.70;76.70;;;;;;5066261;28;20111;-63
2021/06/07 04:22:33;;;;;;;8.75;3.20;;;15.70;76.90;;;;;;5065443;28;20685;-63
2021/06/07 04:25:00;;;;;;;8.93;3.35;;;15.70;77.00;;;;;;5071547;28;20025;-63
2021/06/07 04:27:25;;;;;;;5.35;3.00;;;15.60;77.10;;;;;;5059828;28;20025;-62
2021/06/07 04:29:51;;;;;;;9.60;2.88;;;15.60;77.30;;;;;;5059943;28;20032;-62
2021/06/07 04:32:17;;;;;;;4.13;3.10;;;15.60;77.40;;;;;;5073765;28;20492;-62
2021/06/07 04:34:45;;;;;;;4.63;3.00;;;15.60;77.90;;;;;;5075361;28;20040;-62
2021/06/07 04:37:11;;;;;;;6.85;3.83;;;15.60;77.80;;;;;;5075040;28;20040;-63
2021/06/07 04:39:37;;;;;;;7.88;3.17;;;15.50;78.00;;;;;;5074240;28;20486;-63
2021/06/07 04:42:04;;;;;;;4.65;3.60;;;15.50;78.30;;;;;;5074817;28;20024;-62
2021/06/07 04:44:30;;;;;;;5.82;3.78;;;15.50;78.80;;;;;;5074553;28;20387;-63
2021/06/07 04:46:56;;;;;;;8.30;4.28;;;15.50;79.20;;;;;;5075905;28;20028;-63
2021/06/07 04:49:21;;;;;;;9.85;3.85;;;15.50;79.70;;;;;;5075724;28;20020;-62
2021/06/07 04:51:48;;;;;;;8.65;3.55;;;15.50;80.00;;;;;;5073899;28;20034;-62
2021/06/07 04:54:13;;;;;;;7.00;4.40;;;15.50;80.30;;;;;;5075150;28;20036;-62
2021/06/07 04:56:39;;;;;;;8.52;4.10;;;15.50;80.60;;;;;;5072531;28;20383;-63
2021/06/07 04:59:05;;;;;;;8.88;4.43;;;15.50;80.80;;;;;;5074624;28;20528;-63
2021/06/07 05:01:31;;;;;;;10.23;4.45;;;15.50;81.10;;;;;;5071952;28;20107;-63
2021/06/07 05:03:56;;;;;;;6.07;3.95;;;15.50;81.50;;;;;;5073386;28;20116;-63
2021/06/07 05:06:22;;;;;;;9.82;4.85;;;15.60;81.90;;;;;;5073868;28;20020;-62
2021/06/07 05:08:48;;;;;;;11.88;4.57;;;15.60;82.30;;;;;;5073638;28;20115;-62
2021/06/07 05:11:15;;;;;;;6.90;4.22;;;15.60;82.40;;;;;;5074801;28;20074;-60
2021/06/07 05:13:41;;;;;;;6.80;5.30;;;15.60;82.80;;;;;;5071860;28;20085;-61
2021/06/07 05:16:07;;;;;;;9.00;4.07;;;15.60;82.90;;;;;;5071141;28;20056;-64
2021/06/07 05:18:34;;;;;;;12.05;4.70;;;15.60;82.60;;;;;;5071889;28;20088;-62
2021/06/07 05:20:59;;;;;;;6.45;4.05;;;15.60;82.90;;;;;;5071501;28;20388;-62
2021/06/07 05:23:25;;;;;;;7.38;4.63;;;15.60;82.70;;;;;;5071740;28;20024;-62
2021/06/07 05:26:16;;;;;;;10.52;5.18;;;15.60;83.70;;;;;;5071189;28;20522;-63
2021/06/07 05:28:42;;;;;;;7.05;4.65;;;15.70;84.10;;;;;;5073260;28;20132;-62
2021/06/07 05:31:07;;;;;;;11.98;4.85;;;15.70;84.30;;;;;;5073289;28;20100;-62
2021/06/07 05:33:33;;;;;;;9.07;4.78;;;15.80;84.10;;;;;;5073689;28;20476;-62
2021/06/07 05:35:59;;;;;;;7.47;4.43;;;15.80;84.30;;;;;;5088601;28;20056;-62
2021/06/07 05:38:25;;;;;;;8.43;4.55;;;15.80;84.70;;;;;;5093044;28;20028;-65
2021/06/07 05:40:53;;;;;;;7.00;4.78;;;15.80;84.50;;;;;;5091567;28;20474;-62
2021/06/07 05:43:22;;;;;;;6.57;4.60;;;15.90;84.70;;;;;;5091525;28;20036;-61
2021/06/07 05:45:51;;;;;;;6.07;4.53;;;15.90;84.80;;;;;;5091558;28;20035;-69
2021/06/07 05:48:17;;;;;;;7.78;4.85;;;16.00;84.70;;;;;;5090857;28;20073;-63
2021/06/07 05:50:44;;;;;;;7.43;5.07;;;16.00;84.90;;;;;;5091701;28;20032;-63
2021/06/07 05:53:12;;;;;;;12.65;4.93;;;16.00;85.30;;;;;;5090811;28;20047;-63
2021/06/07 05:55:41;;;;;;;7.65;4.50;;;16.00;85.70;;;;;;5091552;28;20028;-63
2021/06/07 05:58:16;;;;;;;8.25;5.05;;;16.10;85.10;;;;;;5092842;28;20044;-62
2021/06/07 06:00:44;;;;;;;7.35;4.20;;;16.10;85.40;;;;;;5091808;28;20129;-63
2021/06/07 06:03:10;;;;;;;7.90;4.13;;;16.20;85.50;;;;;;5093859;28;20036;-61
2021/06/07 06:05:37;;;;;;;9.30;4.03;;;16.20;85.70;;;;;;5092549;28;20024;-61
2021/06/07 06:08:05;;;;;;;7.50;4.10;;;16.20;85.80;;;;;;5092451;28;20024;-61
2021/06/07 06:10:31;;;;;;;5.55;3.50;;;16.30;85.70;;;;;;5092643;28;20034;-61
2021/06/07 06:12:56;;;;;;;8.35;3.50;;;16.30;85.20;;;;;;5093366;28;20140;-61
2021/06/07 06:15:24;;;;;;;7.35;3.65;;;16.30;85.20;;;;;;5089937;28;20104;-61
2021/06/07 06:17:50;;;;;;;10.05;4.80;;;16.40;85.30;;;;;;5093708;28;20115;-61
2021/06/07 06:20:17;;;;;;;8.90;3.60;;;16.40;85.30;;;;;;5088110;28;20099;-61
2021/06/07 06:22:44;;;;;;;9.07;3.10;;;16.50;84.60;;;;;;5074154;28;20028;-61
2021/06/07 06:25:11;;;;;;;6.15;2.40;;;16.50;84.40;;;;;;5092791;28;20066;-61
2021/06/07 06:27:38;;;;;;;4.93;3.05;;;16.60;84.30;;;;;;5092202;28;20084;-61
2021/06/07 06:30:09;;;;;;;6.38;3.28;;;16.60;83.90;;;;;;5091928;28;20024;-61
2021/06/07 06:32:37;;;;;;;7.15;2.85;;;16.60;84.00;;;;;;5091969;28;20077;-61
2021/06/07 06:35:03;;;;;;;6.90;2.85;;;16.70;83.70;;;;;;5091492;28;20052;-61
2021/06/07 06:37:29;;;;;;;7.45;4.10;;;16.80;83.80;;;;;;5091089;28;20024;-61
2021/06/07 06:39:55;;;;;;;5.97;3.60;;;16.80;83.40;;;;;;5091825;28;20073;-61
2021/06/07 06:42:20;;;;;;;5.70;2.90;;;16.80;83.00;;;;;;5094214;28;20121;-61
2021/06/07 06:44:46;;;;;;;7.43;2.80;;;16.80;82.90;;;;;;5089024;28;20035;-61
2021/06/07 06:47:12;;;;;;;2.92;2.00;;;16.80;83.00;;;;;;5093356;28;20133;-61
2021/06/07 06:49:37;;;;;;;5.15;2.38;;;16.80;82.50;;;;;;5091337;28;20475;-61
2021/06/07 06:52:04;;;;;;;3.83;2.20;;;16.90;81.90;;;;;;5091703;28;20082;-61
2021/06/07 06:54:29;;;;;;;6.32;2.20;;;16.90;81.70;;;;;;5092392;28;20041;-60
2021/06/07 06:56:58;;;;;;;6.25;1.88;;;16.90;80.90;;;;;;5090258;28;20039;-61
2021/06/07 06:59:24;;;;;;;4.65;1.70;;;17.00;80.50;;;;;;5091438;28;20441;-61
2021/06/07 07:01:49;;;;;;;3.00;2.03;;;17.10;80.10;;;;;;5091949;28;20111;-61
2021/06/07 07:04:15;;;;;;;3.13;1.90;;;17.10;79.70;;;;;;5092582;28;20024;-61
2021/06/07 07:06:41;;;;;;;2.60;1.70;;;17.10;79.30;;;;;;5090948;28;20032;-61
2021/06/07 07:09:07;;;;;;;3.72;1.70;;;17.20;78.90;;;;;;5088307;28;20078;-61
2021/06/07 07:11:33;;;;;;;4.35;2.08;;;17.30;78.80;;;;;;5092460;28;20409;-61
2021/06/07 07:14:00;;;;;;;4.60;2.33;;;17.30;78.50;;;;;;5091445;28;20119;-61
2021/06/07 07:16:26;;;;;;;3.40;1.80;;;17.30;78.70;;;;;;5092874;28;20038;-61
2021/06/07 07:18:52;;;;;;;6.60;2.08;;;17.30;78.30;;;;;;5092409;28;20527;-61
2021/06/07 07:21:18;;;;;;;8.23;1.88;;;17.40;78.20;;;;;;5090135;28;20020;-61
2021/06/07 07:23:43;;;;;;;16.27;2.10;;;17.40;78.00;;;;;;5092220;28;20036;-61
2021/06/07 07:26:09;;;;;;;2.70;1.48;;;17.40;78.50;;;;;;5091934;28;20035;-61
2021/06/07 07:28:35;;;;;;;4.68;1.58;;;17.50;77.70;;;;;;5092291;28;20036;-61
2021/06/07 07:31:00;;;;;;;3.03;1.65;;;17.50;77.60;;;;;;5091742;28;20028;-61
2021/06/07 07:33:26;;;;;;;4.57;1.45;;;17.60;77.60;;;;;;5092152;28;20060;-61
2021/06/07 07:35:52;;;;;;;2.00;1.58;;;17.70;77.10;;;;;;5089530;28;20131;-61
2021/06/07 07:38:17;;;;;;;4.93;1.48;;;17.70;77.00;;;;;;5092786;28;20051;-61
2021/06/07 07:40:44;;;;;;;3.95;1.80;;;17.80;76.70;;;;;;5091754;28;20100;-61
2021/06/07 07:43:10;;;;;;;4.55;2.00;;;17.80;76.50;;;;;;5091520;28;20051;-61
2021/06/07 07:45:36;;;;;;;3.70;1.73;;;17.90;76.30;;;;;;5092502;28;20047;-61
2021/06/07 07:48:04;;;;;;;2.75;1.45;;;18.00;76.10;;;;;;5089633;28;20028;-61
2021/06/07 07:50:30;;;;;;;6.20;1.45;;;18.00;75.70;;;;;;5091706;28;20043;-61
2021/06/07 07:53:03;;;;;;;2.67;1.42;;;18.10;75.50;;;;;;5092024;28;20475;-61
2021/06/07 07:55:31;;;;;;;4.50;1.90;;;18.10;75.10;;;;;;5088912;28;20024;-61
2021/06/07 07:57:59;;;;;;;3.75;1.60;;;18.20;75.30;;;;;;5092118;28;20491;-61
2021/06/07 08:00:27;;;;;;;2.90;2.00;;;18.20;75.10;;;;;;5090645;28;20028;-62
2021/06/07 08:02:53;;;;;;;2.22;1.67;;;18.30;75.00;;;;;;5092156;28;20024;-62
2021/06/07 08:05:19;;;;;;;4.88;1.80;;;18.30;74.90;;;;;;5086734;28;20024;-62
2021/06/07 08:07:45;;;;;;;7.97;2.60;;;18.30;74.70;;;;;;5095510;28;20429;-61
2021/06/07 08:10:11;;;;;;;3.35;1.88;;;18.30;74.40;;;;;;5095924;28;20365;-63
2021/06/07 08:12:38;;;;;;;2.95;2.00;;;18.50;74.60;;;;;;5095354;28;20479;-61
2021/06/07 08:15:06;;;;;;;5.93;1.80;;;18.50;74.30;;;;;;5092096;28;20024;-61
2021/06/07 08:17:32;;;;;;;3.63;1.90;;;18.50;73.90;;;;;;5090324;28;20395;-61
2021/06/07 08:19:58;;;;;;;5.65;2.53;;;18.60;73.20;;;;;;5095254;28;20032;-61
2021/06/07 08:22:23;;;;;;;5.25;2.22;;;18.60;73.30;;;;;;5091368;28;20024;-61
2021/06/07 08:24:49;;;;;;;4.47;1.98;;;18.60;72.70;;;;;;5094663;28;20135;-61
2021/06/07 08:27:15;;;;;;;5.38;2.03;;;18.70;72.60;;;;;;5095020;28;20543;-61
2021/06/07 08:29:40;;;;;;;3.38;1.85;;;18.70;72.90;;;;;;5095026;28;20376;-61
2021/06/07 08:32:06;;;;;;;5.50;2.22;;;18.70;72.90;;;;;;5096057;28;20058;-61
2021/06/07 08:34:33;;;;;;;5.32;2.33;;;18.70;72.40;;;;;;5095682;28;20052;-61
2021/06/07 08:36:59;;;;;;;2.97;2.05;;;18.80;72.40;;;;;;5094487;28;20025;-61
2021/06/07 08:39:24;;;;;;;3.55;1.90;;;18.80;72.30;;;;;;5094851;28;20429;-61
2021/06/07 08:41:50;;;;;;;2.40;2.20;;;18.90;72.60;;;;;;5094962;28;20035;-61
2021/06/07 08:44:16;;;;;;;5.75;2.30;;;18.90;72.20;;;;;;5095341;28;20028;-62
2021/06/07 08:46:42;;;;;;;2.78;1.70;;;19.00;71.60;;;;;;5095435;28;20036;-62
2021/06/07 08:49:08;;;;;;;2.97;2.00;;;19.00;71.40;;;;;;5093221;28;20027;-62
2021/06/07 08:51:34;;;;;;;2.00;1.80;;;19.10;71.20;;;;;;5089050;28;20036;-61
2021/06/07 08:53:59;;;;;;;4.15;2.50;;;19.10;71.70;;;;;;5093528;28;20036;-61
2021/06/07 08:56:25;;;;;;;2.40;1.52;;;19.10;70.90;;;;;;5094777;28;20020;-61
2021/06/07 08:58:51;;;;;;;4.15;1.88;;;19.20;70.30;;;;;;5094326;28;20024;-61
2021/06/07 09:01:17;;;;;;;4.85;1.80;;;19.20;70.00;;;;;;5094565;28;20020;-61
2021/06/07 09:03:43;;;;;;;2.78;1.92;;;19.20;69.60;;;;;;5091433;28;21929;-61
2021/06/07 09:06:10;;;;;;;1.98;1.42;;;19.30;70.10;;;;;;5088705;28;20475;-61
2021/06/07 09:08:40;;;;;;;4.45;1.40;;;19.30;70.30;;;;;;5093144;28;20032;-61
2021/06/07 09:11:14;;;;;;;3.25;1.10;;;19.40;69.40;;;;;;5091076;28;20042;-61
2021/06/07 09:13:41;;;;;;;5.53;1.58;;;19.40;69.50;;;;;;5093991;28;20114;-61
2021/06/07 09:16:09;;;;;;;3.45;1.38;;;19.40;69.10;;;;;;5092898;28;20028;-61
2021/06/07 09:18:36;;;;;;;3.83;1.58;;;19.40;69.20;;;;;;5092934;28;20024;-61
2021/06/07 09:21:24;;;;;;;1.92;1.38;;;19.50;69.80;;;;;;5094226;28;20024;-61
2021/06/07 09:24:04;;;;;;;3.72;1.50;;;19.50;69.70;;;;;;5075571;28;20671;-61
2021/06/07 09:26:34;;;;;;;3.13;1.60;;;19.60;69.60;;;;;;5091692;28;20034;-61
2021/06/07 09:29:09;;;;;;;3.55;1.88;;;19.60;69.90;;;;;;5093884;28;20039;-61
2021/06/07 09:31:39;;;;;;;2.50;1.67;;;19.60;70.30;;;;;;5090626;28;20059;-61
2021/06/07 09:34:07;;;;;;;3.63;2.08;;;19.60;70.00;;;;;;5093454;28;20047;-61
2021/06/07 09:36:34;;;;;;;6.20;2.35;;;19.70;71.20;;;;;;5092134;28;20075;-61
2021/06/07 09:39:03;;;;;;;4.50;1.77;;;19.70;70.90;;;;;;5093452;28;20051;-61
2021/06/07 09:41:42;;;;;;;4.88;2.42;;;19.70;70.90;;;;;;5092223;28;20028;-61
2021/06/07 09:44:08;;;;;;;3.42;2.05;;;19.80;70.10;;;;;;5094237;28;20380;-62
2021/06/07 09:46:34;;;;;;;4.85;1.92;;;19.80;70.70;;;;;;5074979;28;20031;-64
2021/06/07 09:49:39;;;;;;;4.55;2.35;;;19.80;71.00;;;;;;5094306;28;20036;-65
2021/06/07 09:52:09;;;;;;;5.25;2.42;;;19.80;71.00;;;;;;5050249;28;20097;-64
2021/06/07 09:54:34;;;;;;;6.55;2.83;;;19.90;71.30;;;;;;5092921;28;20040;-64
2021/06/07 09:57:03;;;;;;;12.50;2.85;;;19.90;70.60;;;;;;5091823;28;20061;-65
2021/06/07 09:59:34;;;;;;;9.15;3.00;;;19.90;69.50;;;;;;5094786;28;20040;-64
2021/06/07 10:02:00;;;;;;;5.63;2.90;;;19.90;70.00;;;;;;5092192;28;20052;-64
2021/06/07 10:05:02;;;;;;;4.28;2.90;;;19.90;70.20;;;;;;5093431;28;20034;-64
2021/06/07 10:07:28;;;;;;;3.90;2.80;;;20.00;70.80;;;;;;4967068;28;20078;-62
2021/06/07 10:10:26;;;;;;;6.18;3.05;;;20.00;70.00;;;;;;5064803;28;20040;-62
2021/06/07 10:12:59;;;;;;;6.28;3.05;;;20.00;69.90;;;;;;5028201;28;20460;-62
2021/06/07 10:15:43;;;;;;;5.50;3.33;;;20.00;70.20;;;;;;5086673;28;20024;-62
2021/06/07 10:18:13;;;;;;;6.53;3.13;;;20.10;70.30;;;;;;5092497;28;20035;-62
2021/06/07 10:20:52;;;;;;;4.32;2.70;;;20.10;70.60;;;;;;5092911;28;20034;-63
2021/06/07 10:23:26;;;;;;;7.18;3.70;;;20.10;70.20;;;;;;5090839;28;20034;-62
2021/06/07 10:25:54;;;;;;;5.47;2.75;;;20.10;69.70;;;;;;5090325;28;20024;-61
2021/06/07 10:28:33;;;;;;;3.20;2.60;;;20.20;70.20;;;;;;5091654;28;20479;-61
2021/06/07 10:31:11;;;;;;;5.90;2.70;;;20.20;70.40;;;;;;5092134;28;20106;-61
2021/06/07 10:33:39;;;;;;;5.10;3.15;;;20.20;70.10;;;;;;5092511;28;20044;-61
2021/06/07 10:36:22;;;;;;;7.47;2.58;;;20.20;70.30;;;;;;5091018;28;20044;-61
2021/06/07 10:38:53;;;;;;;6.63;2.50;;;20.30;70.60;;;;;;5093743;28;20067;-62
2021/06/07 10:41:27;;;;;;;3.72;2.30;;;20.20;70.20;;;;;;5092731;28;20379;-62
2021/06/07 10:43:56;;;;;;;7.30;2.28;;;20.20;69.20;;;;;;5091706;28;20085;-61
2021/06/07 10:46:30;;;;;;;3.95;2.47;;;20.20;70.10;;;;;;5092120;28;20085;-61
2021/06/07 10:48:58;;;;;;;5.25;2.00;;;20.20;70.20;;;;;;5089933;28;20123;-61
2021/06/07 10:51:26;;;;;;;7.78;2.28;;;20.30;69.90;;;;;;5091656;28;20028;-61
2021/06/07 10:54:13;;;;;;;3.00;1.73;;;20.30;69.80;;;;;;5092648;28;20070;-61
2021/06/07 10:56:39;;;;;;;6.45;2.05;;;20.30;69.40;;;;;;5088824;28;20028;-61
2021/06/07 10:59:14;;;;;;;3.33;2.10;;;20.40;69.40;;;;;;5092618;28;20050;-61
2021/06/07 11:01:59;;;;;;;3.50;1.63;;;20.40;69.30;;;;;;5092215;28;20031;-61
2021/06/07 11:04:37;;;;;;;4.75;2.60;;;20.40;69.00;;;;;;5090301;28;20032;-61
2021/06/07 11:07:11;;;;;;;6.55;2.63;;;20.50;69.70;;;;;;5089545;28;20391;-61
2021/06/07 11:10:15;;;;;;;3.60;2.35;;;20.50;69.60;;;;;;5092295;28;20024;-61
2021/06/07 11:12:42;;;;;;;5.70;2.60;;;20.50;69.60;;;;;;5090301;28;20032;-61
2021/06/07 11:15:28;;;;;;;5.97;2.83;;;20.50;69.30;;;;;;5092225;28;20036;-61
2021/06/07 11:18:24;;;;;;;8.93;2.80;;;20.60;69.20;;;;;;5091100;28;20028;-61
2021/06/07 11:20:53;;;;;;;7.65;2.22;;;20.60;69.20;;;;;;5091822;28;20479;-61
2021/06/07 11:23:28;;;;;;;3.85;2.30;;;20.70;69.20;;;;;;5089937;28;20031;-61
2021/06/07 11:25:55;;;;;;;5.22;2.58;;;20.70;70.10;;;;;;5090684;28;20023;-63
2021/06/07 11:28:30;;;;;;;6.60;2.50;;;20.70;69.20;;;;;;5075207;28;20024;-62
2021/06/07 11:30:57;;;;;;;5.68;2.70;;;20.80;69.80;;;;;;5090070;28;20026;-62
2021/06/07 11:33:23;;;;;;;11.40;2.60;;;20.80;69.40;;;;;;5091144;28;20418;-62
2021/06/07 11:35:49;;;;;;;5.93;2.38;;;20.90;70.00;;;;;;5088725;28;20052;-61
2021/06/07 11:38:35;;;;;;;3.58;2.00;;;20.90;68.90;;;;;;5091376;28;20036;-60
2021/06/07 11:41:04;;;;;;;5.82;2.67;;;21.00;68.80;;;;;;5076864;28;20464;-61
2021/06/07 11:43:48;;;;;;;4.20;2.75;;;21.00;68.90;;;;;;5090006;28;20475;-61
2021/06/07 11:46:32;;;;;;;9.05;3.00;;;21.10;68.80;;;;;;5090329;28;20024;-61
2021/06/07 11:49:12;;;;;;;7.65;2.92;;;21.10;69.10;;;;;;5089990;28;20487;-61
2021/06/07 11:51:38;;;;;;;6.13;3.03;;;21.10;68.00;;;;;;5087877;28;20503;-61
2021/06/07 11:54:25;;;;;;;4.50;2.65;;;21.20;68.70;;;;;;5091296;28;20047;-60
2021/06/07 11:56:55;;;;;;;6.03;2.58;;;21.20;69.30;;;;;;5089456;28;20476;-61
2021/06/07 11:59:25;;;;;;;6.07;2.90;;;21.20;68.60;;;;;;5092591;28;20048;-61
2021/06/07 12:01:51;;;;;;;5.07;2.47;;;21.30;67.70;;;;;;5091500;28;20044;-61
2021/06/07 12:04:33;;;;;;;4.45;2.50;;;21.30;67.60;;;;;;5091818;28;20077;-60
2021/06/07 12:07:03;;;;;;;3.92;2.55;;;21.30;66.50;;;;;;5075415;28;20039;-62
2021/06/07 12:09:29;;;;;;;6.85;2.75;;;21.30;66.70;;;;;;5091235;28;20028;-62
2021/06/07 12:11:56;;;;;;;4.03;2.53;;;21.40;66.40;;;;;;5091254;28;20032;-62
2021/06/07 12:14:42;;;;;;;4.05;2.30;;;21.40;65.60;;;;;;5089901;28;20081;-60
2021/06/07 12:17:09;;;;;;;4.78;2.22;;;21.40;66.60;;;;;;5071840;28;20027;-59
2021/06/07 12:19:42;;;;;;;3.88;2.10;;;21.50;67.20;;;;;;5090174;28;20036;-60
2021/06/07 12:22:29;;;;;;;6.22;2.75;;;21.50;67.40;;;;;;5088884;28;20032;-60
2021/06/07 12:24:58;;;;;;;5.43;2.55;;;21.50;67.30;;;;;;5074886;28;20032;-60
2021/06/07 12:30:27;;;;;;;8.47;2.17;;;21.50;66.30;;;;;;5089237;28;20040;-60
2021/06/07 12:32:53;;;;;;;5.57;2.80;;;21.50;66.80;;;;;;5091357;28;20056;-60
2021/06/07 12:35:21;;;;;;;3.67;2.00;;;21.50;67.10;;;;;;5070988;28;20051;-60
2021/06/07 12:38:01;;;;;;;5.15;2.10;;;21.50;65.80;;;;;;5090137;28;20067;-60
2021/06/07 12:40:30;;;;;;;4.78;2.10;;;21.60;66.50;;;;;;5086503;28;20035;-60
2021/06/07 12:43:10;;;;;;;3.53;1.90;;;21.50;66.40;;;;;;5087783;28;20036;-60
2021/06/07 12:45:39;;;;;;;3.78;1.95;;;21.60;66.80;;;;;;5088035;28;21719;-60
2021/06/07 12:48:17;;;;;;;3.85;1.73;;;21.60;64.90;;;;;;5087066;28;20111;-60
2021/06/07 12:50:50;;;;;;;4.65;2.10;;;21.60;64.20;;;;;;5088293;28;20032;-60
2021/06/07 12:53:18;;;;;;;2.78;2.10;;;21.60;66.30;;;;;;5091872;28;20050;-60
2021/06/07 12:55:45;;;;;;;3.05;1.85;;;21.60;66.30;;;;;;5086274;28;20028;-60
2021/06/07 12:58:14;;;;;;;6.57;2.40;;;21.60;66.50;;;;;;5091159;28;20089;-60